Time;durP1;ratioP1;P1;durP2;ratioP2;P2;SDS_P1;SDS_P2;PMS_P1;PMS_P2;Temp;Humidity;BMP_temperature;BMP_pressure;BME280_temperature;BME280_humidity;BME280_pressure;Samples;Min_cycle;Max_cycle;Signal;HPM_P1;HPM_P2
2021/06/26 00:00:27;;;;;;;10.53;8.97;;;19.90;94.90;;;;;;4868827;29;20471;-88
2021/06/26 00:03:19;;;;;;;9.90;8.90;;;19.90;95.40;;;;;;4877485;29;20204;-85
2021/06/26 00:05:48;;;;;;;9.60;8.60;;;19.80;95.90;;;;;;4880841;29;20204;-85
2021/06/26 00:08:17;;;;;;;10.57;9.47;;;19.80;96.10;;;;;;4878240;29;20357;-86
2021/06/26 00:10:51;;;;;;;9.70;8.80;;;19.80;96.20;;;;;;4883153;29;20220;-86
2021/06/26 00:13:21;;;;;;;10.30;8.77;;;19.80;96.70;;;;;;4889879;29;20258;-86
2021/06/26 00:15:51;;;;;;;11.17;8.63;;;19.70;97.50;;;;;;4895974;29;20184;-86
2021/06/26 00:18:23;;;;;;;10.27;8.87;;;19.60;98.00;;;;;;4886950;29;20192;-89
2021/06/26 00:20:55;;;;;;;10.47;9.47;;;19.50;98.70;;;;;;4891766;29;20564;-86
2021/06/26 00:23:24;;;;;;;10.47;9.37;;;19.50;99.50;;;;;;4887015;29;20215;-85
2021/06/26 00:25:58;;;;;;;10.53;9.63;;;19.50;99.90;;;;;;4871066;29;20212;-85
2021/06/26 00:28:56;;;;;;;11.60;9.57;;;19.50;99.90;;;;;;4871631;29;20508;-85
2021/06/26 00:31:26;;;;;;;9.97;9.07;;;19.50;99.90;;;;;;4881070;29;20232;-85
2021/06/26 00:33:58;;;;;;;10.33;8.87;;;19.60;99.90;;;;;;4880053;29;20208;-83
2021/06/26 00:36:27;;;;;;;10.10;9.10;;;19.70;99.40;;;;;;4874596;29;20208;-87
2021/06/26 00:38:56;;;;;;;9.33;8.50;;;19.80;99.10;;;;;;4875923;29;20275;-85
2021/06/26 00:41:26;;;;;;;10.60;9.03;;;19.80;98.70;;;;;;4878345;29;20216;-86
2021/06/26 00:43:55;;;;;;;9.87;8.57;;;19.90;98.80;;;;;;4875832;29;20208;-85
2021/06/26 00:46:23;;;;;;;9.47;8.57;;;19.80;99.10;;;;;;4883513;29;20227;-87
2021/06/26 00:48:55;;;;;;;10.60;8.37;;;19.90;99.20;;;;;;4879341;29;20294;-85
2021/06/26 00:51:24;;;;;;;9.40;8.43;;;19.90;99.30;;;;;;4880057;29;20238;-86
2021/06/26 00:53:57;;;;;;;9.13;8.17;;;19.90;99.30;;;;;;4870848;29;20219;-86
2021/06/26 00:56:27;;;;;;;9.67;8.50;;;19.90;99.70;;;;;;4874071;29;21067;-86
2021/06/26 00:59:14;;;;;;;9.07;8.17;;;19.90;99.90;;;;;;4883954;29;20281;-88
2021/06/26 01:01:47;;;;;;;10.70;8.70;;;19.90;99.90;;;;;;4892356;29;20240;-86
2021/06/26 01:04:26;;;;;;;9.23;7.97;;;19.90;99.90;;;;;;4885788;29;20196;-86
2021/06/26 01:07:00;;;;;;;9.27;8.47;;;19.80;99.90;;;;;;4892311;29;20220;-88
2021/06/26 01:09:30;;;;;;;8.20;7.40;;;19.70;99.90;;;;;;4939884;23;20223;-84
2021/06/26 01:12:00;;;;;;;9.13;8.27;;;19.60;99.90;;;;;;4940694;28;20235;-88
2021/06/26 01:14:29;;;;;;;8.80;7.90;;;19.60;99.90;;;;;;4924154;29;20895;-86
2021/06/26 01:17:05;;;;;;;9.23;8.37;;;19.60;99.90;;;;;;4913103;29;20282;-86
2021/06/26 01:19:36;;;;;;;9.30;8.43;;;19.60;99.90;;;;;;4924369;29;20217;-84
2021/06/26 01:22:06;;;;;;;8.73;7.67;;;19.50;99.90;;;;;;4925669;29;20715;-85
2021/06/26 01:24:38;;;;;;;7.63;7.03;;;19.50;99.90;;;;;;4924756;29;20937;-89
2021/06/26 01:27:07;;;;;;;7.83;7.13;;;19.50;99.90;;;;;;4915939;29;20214;-87
2021/06/26 01:29:37;;;;;;;6.93;6.30;;;19.50;99.90;;;;;;4935091;28;20206;-86
2021/06/26 01:32:08;;;;;;;6.10;5.57;;;19.40;99.90;;;;;;4930848;28;20241;-89
2021/06/26 01:34:37;;;;;;;6.83;6.23;;;19.30;99.90;;;;;;4913333;29;20202;-88
2021/06/26 01:37:06;;;;;;;6.40;5.80;;;19.30;99.90;;;;;;4917995;29;20270;-88
2021/06/26 01:39:35;;;;;;;5.80;5.30;;;19.20;99.90;;;;;;4923486;29;20231;-85
2021/06/26 01:42:06;;;;;;;5.80;5.30;;;19.20;99.90;;;;;;4930428;29;20724;-86
2021/06/26 01:44:36;;;;;;;5.77;5.27;;;19.20;99.90;;;;;;4929304;29;20195;-86
2021/06/26 01:47:07;;;;;;;5.03;4.63;;;19.20;99.90;;;;;;4927244;29;20214;-87
2021/06/26 01:49:38;;;;;;;5.33;4.93;;;19.20;99.90;;;;;;4923008;29;20468;-87
2021/06/26 01:52:09;;;;;;;4.97;4.57;;;19.10;99.90;;;;;;4938762;29;20294;-91
2021/06/26 01:54:39;;;;;;;4.40;4.10;;;19.10;99.90;;;;;;4935207;29;20207;-87
2021/06/26 01:57:10;;;;;;;4.63;4.23;;;19.10;99.90;;;;;;4934230;28;20214;-88
2021/06/26 01:59:39;;;;;;;5.03;4.63;;;19.10;99.90;;;;;;4935114;29;20202;-86
2021/06/26 02:02:08;;;;;;;5.97;5.47;;;19.10;99.90;;;;;;4927601;28;20274;-85
2021/06/26 02:04:41;;;;;;;5.47;4.97;;;19.10;99.90;;;;;;4942465;28;20233;-88
2021/06/26 02:07:14;;;;;;;4.73;4.40;;;19.10;99.90;;;;;;4939326;28;20186;-86
2021/06/26 02:09:46;;;;;;;5.63;5.13;;;19.10;99.90;;;;;;4924649;28;20206;-89
2021/06/26 02:12:24;;;;;;;5.27;4.77;;;19.00;99.90;;;;;;4913754;29;20238;-89
2021/06/26 02:14:54;;;;;;;5.73;5.23;;;19.00;99.90;;;;;;4915151;29;20229;-90
2021/06/26 02:17:24;;;;;;;5.50;5.00;;;19.00;99.90;;;;;;4912873;29;20748;-86
2021/06/26 02:19:53;;;;;;;5.67;5.23;;;19.00;99.90;;;;;;4917636;29;20207;-86
2021/06/26 02:22:22;;;;;;;6.47;5.93;;;19.00;99.90;;;;;;4923918;29;20214;-86
2021/06/26 02:24:51;;;;;;;5.33;4.83;;;19.00;99.90;;;;;;4926912;29;20950;-87
2021/06/26 02:27:19;;;;;;;6.83;5.67;;;19.00;99.90;;;;;;4918678;29;20706;-87
2021/06/26 02:29:50;;;;;;;5.77;5.20;;;19.00;99.90;;;;;;4922449;29;20195;-87
2021/06/26 02:32:19;;;;;;;5.40;5.00;;;19.00;99.90;;;;;;4925217;29;20262;-88
2021/06/26 02:34:47;;;;;;;5.80;5.30;;;19.00;99.90;;;;;;4919354;29;20234;-85
2021/06/26 02:37:17;;;;;;;6.43;5.90;;;19.00;99.90;;;;;;4915187;29;20368;-88
2021/06/26 02:39:46;;;;;;;5.00;4.60;;;19.00;99.90;;;;;;4913488;29;20206;-85
2021/06/26 02:42:15;;;;;;;6.10;5.50;;;18.90;99.90;;;;;;4928033;29;20206;-84
2021/06/26 02:44:44;;;;;;;5.47;4.80;;;18.90;99.90;;;;;;4914536;29;20214;-86
2021/06/26 02:47:15;;;;;;;5.03;4.63;;;18.90;99.90;;;;;;4908163;29;20215;-85
2021/06/26 02:49:44;;;;;;;6.00;5.40;;;18.90;99.90;;;;;;4911995;28;20207;-84
2021/06/26 02:52:13;;;;;;;5.40;4.97;;;19.00;99.90;;;;;;4911424;29;20249;-87
2021/06/26 02:54:41;;;;;;;5.20;4.80;;;19.00;99.90;;;;;;4916813;29;20530;-88
2021/06/26 02:57:10;;;;;;;5.30;4.87;;;19.00;99.90;;;;;;4911849;29;20206;-84
2021/06/26 02:59:39;;;;;;;4.87;4.47;;;19.00;99.90;;;;;;4918510;29;20214;-87
2021/06/26 03:02:08;;;;;;;5.30;4.90;;;18.90;99.90;;;;;;4927156;29;20261;-86
2021/06/26 03:04:38;;;;;;;5.57;4.93;;;19.00;99.90;;;;;;4927098;29;20219;-85
2021/06/26 03:07:07;;;;;;;6.20;4.97;;;18.90;99.90;;;;;;4924879;29;20229;-84
2021/06/26 03:09:35;;;;;;;4.93;4.53;;;19.00;99.90;;;;;;4919815;29;20337;-85
2021/06/26 03:12:07;;;;;;;4.93;4.43;;;19.00;99.90;;;;;;4937144;28;20298;-85
2021/06/26 03:14:37;;;;;;;4.53;4.13;;;19.00;99.90;;;;;;4921220;29;20300;-86
2021/06/26 03:17:06;;;;;;;5.70;4.03;;;19.00;99.90;;;;;;4929566;29;20241;-85
2021/06/26 03:19:35;;;;;;;5.17;4.67;;;19.00;99.90;;;;;;4913914;29;20207;-86
2021/06/26 03:22:07;;;;;;;5.80;5.17;;;19.00;99.90;;;;;;4913483;29;20206;-85
2021/06/26 03:24:35;;;;;;;5.80;5.23;;;19.00;99.90;;;;;;4914044;28;20214;-85
2021/06/26 03:27:09;;;;;;;8.93;5.17;;;19.00;99.90;;;;;;4926229;29;20645;-85
2021/06/26 03:29:38;;;;;;;6.03;5.50;;;19.00;99.90;;;;;;4931542;29;20545;-87
2021/06/26 03:32:08;;;;;;;6.43;5.40;;;19.00;99.90;;;;;;4931630;29;20222;-87
2021/06/26 03:34:36;;;;;;;6.80;6.13;;;19.10;99.90;;;;;;4921667;29;20214;-86
2021/06/26 03:37:07;;;;;;;6.47;5.53;;;19.10;99.90;;;;;;4929694;29;20207;-90
2021/06/26 03:39:36;;;;;;;6.67;5.97;;;19.20;99.90;;;;;;4937526;28;20207;-85
2021/06/26 03:42:06;;;;;;;6.50;5.83;;;19.20;99.90;;;;;;4937721;28;20202;-87
2021/06/26 03:44:34;;;;;;;6.87;6.10;;;19.20;99.90;;;;;;4937728;28;20518;-87
2021/06/26 03:47:04;;;;;;;6.60;6.10;;;19.20;99.90;;;;;;4934907;28;20195;-86
2021/06/26 03:49:35;;;;;;;6.57;5.97;;;19.20;99.90;;;;;;4936137;28;20203;-87
2021/06/26 03:52:07;;;;;;;6.27;5.67;;;19.20;99.90;;;;;;4919939;29;20206;-86
2021/06/26 03:54:36;;;;;;;6.87;6.27;;;19.10;99.90;;;;;;4913468;29;20214;-87
2021/06/26 03:57:05;;;;;;;6.47;5.87;;;19.10;99.90;;;;;;4909725;29;20269;-86
2021/06/26 03:59:33;;;;;;;6.07;5.43;;;19.10;99.90;;;;;;4908761;29;20685;-86
2021/06/26 04:02:06;;;;;;;6.30;5.80;;;19.10;99.90;;;;;;4917477;29;20252;-87
2021/06/26 04:04:35;;;;;;;6.33;5.73;;;19.10;99.90;;;;;;4914630;29;20219;-85
2021/06/26 04:07:07;;;;;;;6.33;5.70;;;19.10;99.90;;;;;;4922002;29;20227;-85
2021/06/26 04:09:35;;;;;;;7.00;5.80;;;19.00;99.90;;;;;;4919442;29;20687;-85
2021/06/26 04:12:05;;;;;;;7.77;5.93;;;19.10;99.90;;;;;;4925063;29;20221;-84
2021/06/26 04:14:35;;;;;;;6.27;5.50;;;19.10;99.90;;;;;;4934004;28;20246;-86
2021/06/26 04:17:05;;;;;;;6.23;5.63;;;19.10;99.90;;;;;;4921800;29;20210;-86
2021/06/26 04:19:33;;;;;;;7.40;6.10;;;19.10;99.90;;;;;;4916307;29;20211;-88
2021/06/26 04:22:03;;;;;;;6.20;5.53;;;19.10;99.90;;;;;;4915402;29;20206;-86
2021/06/26 04:24:34;;;;;;;6.30;5.77;;;19.20;99.90;;;;;;4919227;29;20210;-86
2021/06/26 04:27:07;;;;;;;6.33;5.50;;;19.20;99.90;;;;;;4921886;29;20732;-86
2021/06/26 04:29:36;;;;;;;8.57;5.90;;;19.20;98.90;;;;;;4916457;29;20889;-84
2021/06/26 04:32:06;;;;;;;6.60;5.93;;;19.30;98.80;;;;;;4919402;29;20267;-86
2021/06/26 04:34:35;;;;;;;5.77;5.10;;;19.20;98.50;;;;;;4917007;29;20704;-88
2021/06/26 04:37:06;;;;;;;6.07;5.53;;;19.30;99.30;;;;;;4911889;29;20210;-86
2021/06/26 04:39:37;;;;;;;6.77;6.13;;;19.50;98.20;;;;;;4922927;29;20214;-87
2021/06/26 04:42:06;;;;;;;6.20;5.60;;;19.60;98.40;;;;;;4931934;29;20293;-86
2021/06/26 04:44:34;;;;;;;6.70;6.10;;;19.70;98.20;;;;;;4923634;29;20614;-87
2021/06/26 04:47:04;;;;;;;6.73;5.53;;;19.60;98.40;;;;;;4928284;29;20220;-85
2021/06/26 04:49:32;;;;;;;6.70;6.10;;;19.70;98.70;;;;;;4918230;29;20199;-87
2021/06/26 04:52:02;;;;;;;6.27;5.53;;;19.80;99.30;;;;;;4922337;28;20203;-88
2021/06/26 04:54:31;;;;;;;6.57;5.87;;;20.00;97.80;;;;;;4932423;28;20215;-88
2021/06/26 04:57:03;;;;;;;6.57;6.07;;;20.10;98.30;;;;;;4926782;29;20206;-85
2021/06/26 04:59:33;;;;;;;6.00;5.50;;;20.30;96.70;;;;;;4926958;29;20214;-86
2021/06/26 05:02:02;;;;;;;6.50;5.90;;;20.50;96.00;;;;;;4920793;29;20203;-86
2021/06/26 05:04:32;;;;;;;6.50;5.40;;;20.60;96.00;;;;;;4927763;29;20207;-87
2021/06/26 05:07:02;;;;;;;6.60;6.00;;;20.80;93.10;;;;;;4928763;29;20507;-85
2021/06/26 05:09:39;;;;;;;7.57;6.30;;;20.90;93.80;;;;;;4919306;29;20207;-87
2021/06/26 05:12:14;;;;;;;7.50;6.00;;;21.10;93.00;;;;;;4920713;28;20670;-87
2021/06/26 05:14:43;;;;;;;6.07;5.47;;;21.20;92.50;;;;;;4914169;29;20309;-86
2021/06/26 05:17:12;;;;;;;6.15;5.28;;;21.40;93.20;;;;;;4916465;29;20239;-87
2021/06/26 05:19:41;;;;;;;5.90;5.40;;;21.70;92.30;;;;;;4910973;29;20211;-85
2021/06/26 05:22:10;;;;;;;5.78;5.18;;;22.10;91.50;;;;;;4915994;29;20206;-84
2021/06/26 05:24:39;;;;;;;7.22;5.50;;;22.10;91.00;;;;;;4915738;29;20218;-87
2021/06/26 05:27:09;;;;;;;7.35;5.60;;;22.10;90.40;;;;;;4918382;28;20213;-84
2021/06/26 05:29:42;;;;;;;6.05;5.55;;;21.90;91.10;;;;;;4917650;29;20226;-89
2021/06/26 05:32:11;;;;;;;6.00;5.38;;;21.80;91.40;;;;;;4922960;29;20218;-87
2021/06/26 05:34:44;;;;;;;6.43;5.82;;;21.80;91.70;;;;;;4918739;29;20241;-88
2021/06/26 05:37:13;;;;;;;6.28;5.25;;;21.60;91.10;;;;;;4913987;29;20206;-85
2021/06/26 05:39:44;;;;;;;6.18;4.60;;;21.50;91.50;;;;;;4919838;29;20708;-87
2021/06/26 05:42:13;;;;;;;8.27;5.88;;;21.40;91.90;;;;;;4911852;29;20297;-86
2021/06/26 05:44:44;;;;;;;6.25;5.65;;;21.20;91.70;;;;;;4925168;29;20213;-87
2021/06/26 05:47:16;;;;;;;6.13;5.53;;;21.10;92.00;;;;;;4934136;29;20269;-85
2021/06/26 05:49:46;;;;;;;6.05;5.43;;;21.00;92.10;;;;;;4921414;29;20210;-86
2021/06/26 05:52:16;;;;;;;6.77;5.43;;;21.00;92.50;;;;;;4937151;28;20195;-84
2021/06/26 05:55:07;;;;;;;6.93;5.50;;;20.90;92.10;;;;;;4932064;29;20627;-86
2021/06/26 05:57:40;;;;;;;5.82;5.25;;;21.20;91.40;;;;;;4926055;29;20749;-86
2021/06/26 06:03:03;;;;;;;6.55;5.40;;;21.60;90.20;;;;;;4931431;28;20202;-85
2021/06/26 06:05:33;;;;;;;5.80;5.15;;;21.50;90.40;;;;;;4936081;28;20199;-87
2021/06/26 06:08:05;;;;;;;6.28;5.63;;;21.40;90.40;;;;;;4937234;28;20174;-84
2021/06/26 06:10:44;;;;;;;5.87;5.10;;;21.30;90.90;;;;;;4934327;28;20215;-88
2021/06/26 06:13:14;;;;;;;7.73;5.50;;;21.10;91.00;;;;;;4937302;29;20210;-84
2021/06/26 06:19:07;;;;;;;6.90;6.03;;;20.80;91.30;;;;;;4934602;28;21276;-88
2021/06/26 06:21:44;;;;;;;7.00;6.30;;;20.60;92.40;;;;;;5003002;23;20245;-84
2021/06/26 06:24:17;;;;;;;8.13;5.87;;;20.70;92.90;;;;;;4926475;28;20331;-87
2021/06/26 06:27:08;;;;;;;6.67;5.77;;;20.80;91.50;;;;;;4922769;29;20222;-87
2021/06/26 06:32:52;;;;;;;6.33;5.73;;;20.80;92.10;;;;;;4936547;28;20257;-86
2021/06/26 06:35:34;;;;;;;6.37;5.73;;;20.90;91.70;;;;;;4937812;28;20230;-86
2021/06/26 06:38:15;;;;;;;7.90;5.83;;;20.90;91.50;;;;;;4930736;28;20215;-88
2021/06/26 06:40:55;;;;;;;6.70;6.03;;;21.00;91.60;;;;;;4932264;29;20209;-87
2021/06/26 06:43:45;;;;;;;6.60;5.97;;;21.00;91.50;;;;;;4924212;29;20207;-87
2021/06/26 06:46:14;;;;;;;6.50;5.90;;;21.20;91.40;;;;;;4924609;29;20390;-86
2021/06/26 06:48:47;;;;;;;7.67;6.17;;;21.30;91.30;;;;;;4932042;29;20237;-87
2021/06/26 06:51:18;;;;;;;6.80;5.63;;;21.30;91.00;;;;;;4942471;28;20203;-87
2021/06/26 06:53:58;;;;;;;5.60;5.07;;;21.20;90.90;;;;;;4927568;29;20679;-88
2021/06/26 06:56:32;;;;;;;6.25;5.65;;;21.30;90.40;;;;;;4929435;29;20206;-85
2021/06/26 06:59:15;;;;;;;6.10;5.50;;;21.50;90.20;;;;;;4920051;29;20214;-84
2021/06/26 07:07:34;;;;;;;5.60;5.07;;;21.50;89.60;;;;;;4927872;29;20210;-85
2021/06/26 07:10:20;;;;;;;6.22;5.38;;;21.50;89.20;;;;;;4923640;29;20217;-88
2021/06/26 07:12:49;;;;;;;5.93;5.32;;;21.70;89.40;;;;;;4931021;29;20236;-89
2021/06/26 07:15:20;;;;;;;6.00;5.00;;;21.70;88.70;;;;;;4931983;29;20231;-87
2021/06/26 07:18:07;;;;;;;6.63;4.70;;;21.70;88.40;;;;;;4925403;29;20207;-87
2021/06/26 07:23:29;;;;;;;5.97;5.38;;;22.00;86.70;;;;;;4916050;29;20290;-86
2021/06/26 07:32:24;;;;;;;6.88;4.93;;;22.20;86.90;;;;;;4951760;23;20441;-87
2021/06/26 07:34:54;;;;;;;5.65;5.07;;;22.40;86.30;;;;;;4930078;28;20230;-89
2021/06/26 07:37:25;;;;;;;5.55;5.05;;;22.40;86.10;;;;;;4924409;29;20206;-88
2021/06/26 07:39:55;;;;;;;6.68;5.22;;;22.60;86.40;;;;;;4929402;29;20226;-87
2021/06/26 07:42:27;;;;;;;5.18;4.68;;;22.70;86.00;;;;;;4922494;28;20631;-87
2021/06/26 07:44:56;;;;;;;5.22;4.82;;;22.70;86.00;;;;;;4925483;29;20257;-88
2021/06/26 07:47:27;;;;;;;5.63;5.10;;;22.80;85.60;;;;;;4926957;29;20197;-85
2021/06/26 07:49:59;;;;;;;5.75;4.97;;;22.70;85.70;;;;;;4928665;28;20496;-86
2021/06/26 07:52:29;;;;;;;6.22;5.63;;;22.60;84.90;;;;;;4938265;28;20213;-86
2021/06/26 07:55:01;;;;;;;5.63;4.75;;;22.50;85.30;;;;;;4940385;28;20299;-88
2021/06/26 07:57:31;;;;;;;4.30;3.85;;;22.50;85.20;;;;;;5149283;23;21838;-87
2021/06/26 08:00:00;;;;;;;5.10;3.92;;;22.70;84.20;;;;;;4944248;28;20218;-82
2021/06/26 08:02:29;;;;;;;7.80;4.55;;;22.80;84.30;;;;;;4942255;28;20195;-84
2021/06/26 08:04:59;;;;;;;4.50;4.13;;;23.00;83.60;;;;;;4945328;28;20246;-84
2021/06/26 08:07:29;;;;;;;5.35;4.00;;;23.30;83.60;;;;;;4942349;28;20390;-85
2021/06/26 08:09:58;;;;;;;5.50;4.30;;;23.10;83.90;;;;;;4935514;28;20206;-88
2021/06/26 08:12:36;;;;;;;6.25;4.80;;;23.50;83.90;;;;;;4921434;29;20206;-85
2021/06/26 08:18:13;;;;;;;5.55;5.00;;;23.90;84.10;;;;;;4931586;28;20273;-84
2021/06/26 08:20:45;;;;;;;6.10;5.30;;;24.20;83.00;;;;;;4934158;29;20220;-87
2021/06/26 08:23:15;;;;;;;6.32;5.15;;;24.40;82.70;;;;;;4924785;29;21046;-85
2021/06/26 08:25:44;;;;;;;6.05;5.30;;;24.50;82.50;;;;;;4926638;29;20630;-85
2021/06/26 08:28:13;;;;;;;6.63;5.40;;;24.10;82.00;;;;;;4928871;29;20316;-86
2021/06/26 08:30:42;;;;;;;6.72;5.63;;;23.90;83.10;;;;;;4930867;29;20597;-85
2021/06/26 08:33:10;;;;;;;5.80;5.25;;;24.00;82.60;;;;;;4926650;29;20229;-86
2021/06/26 08:35:40;;;;;;;5.55;4.88;;;24.00;82.50;;;;;;4940111;29;20583;-86
2021/06/26 08:38:10;;;;;;;6.28;4.60;;;24.10;82.70;;;;;;4934042;29;20274;-84
2021/06/26 08:40:40;;;;;;;5.28;4.55;;;23.90;82.10;;;;;;4938355;29;20569;-85
2021/06/26 08:43:10;;;;;;;5.15;4.65;;;23.80;82.00;;;;;;4936540;29;20517;-88
2021/06/26 08:45:39;;;;;;;5.45;4.40;;;23.50;82.40;;;;;;4933269;29;20198;-85
2021/06/26 08:48:08;;;;;;;6.10;4.95;;;23.60;82.20;;;;;;4927842;29;20202;-85
2021/06/26 08:50:41;;;;;;;6.55;4.70;;;23.80;82.20;;;;;;4928638;29;20296;-87
2021/06/26 08:53:10;;;;;;;5.72;5.00;;;23.70;81.90;;;;;;4944878;29;20202;-86
2021/06/26 08:55:41;;;;;;;4.57;4.18;;;23.50;81.80;;;;;;4946143;28;20380;-87
2021/06/26 08:58:12;;;;;;;4.10;3.78;;;23.50;81.80;;;;;;4947630;28;20218;-86
2021/06/26 09:00:43;;;;;;;7.43;4.00;;;23.60;81.40;;;;;;4952662;28;20442;-87
2021/06/26 09:03:15;;;;;;;5.63;4.10;;;23.70;80.90;;;;;;4930746;28;20536;-88
2021/06/26 09:05:46;;;;;;;4.35;3.75;;;23.90;80.40;;;;;;4932513;29;20258;-85
2021/06/26 09:08:17;;;;;;;3.92;2.83;;;24.20;81.20;;;;;;4924162;29;20255;-87
2021/06/26 09:10:50;;;;;;;2.97;2.60;;;24.20;80.10;;;;;;4930679;29;20234;-85
2021/06/26 09:13:22;;;;;;;3.17;2.75;;;24.20;78.80;;;;;;4930150;29;20209;-86
2021/06/26 09:16:04;;;;;;;3.25;2.90;;;24.10;77.40;;;;;;4927642;29;20334;-86
2021/06/26 09:18:42;;;;;;;2.60;2.40;;;24.10;78.10;;;;;;4930341;29;20265;-87
2021/06/26 09:21:23;;;;;;;3.38;3.08;;;24.50;77.50;;;;;;4926327;29;20213;-85
2021/06/26 09:24:05;;;;;;;3.33;3.03;;;24.50;77.70;;;;;;4937898;29;20202;-85
2021/06/26 09:26:37;;;;;;;4.53;3.20;;;24.80;77.10;;;;;;4922167;29;20213;-88
2021/06/26 09:29:11;;;;;;;2.90;2.70;;;24.80;77.60;;;;;;4925174;28;20324;-87
2021/06/26 09:31:53;;;;;;;3.20;2.47;;;24.80;76.00;;;;;;4929135;29;20572;-86
2021/06/26 09:34:37;;;;;;;2.95;2.75;;;24.90;76.80;;;;;;4944695;28;20226;-85
2021/06/26 09:37:08;;;;;;;2.92;2.60;;;25.00;76.40;;;;;;4927066;29;20234;-85
2021/06/26 09:39:38;;;;;;;2.92;2.72;;;24.90;74.90;;;;;;4928768;28;20570;-87
2021/06/26 09:42:17;;;;;;;2.63;2.42;;;24.80;74.90;;;;;;4925245;29;20262;-86
2021/06/26 09:44:51;;;;;;;2.72;2.53;;;24.60;74.50;;;;;;4923890;29;20685;-88
2021/06/26 09:47:28;;;;;;;2.70;2.50;;;24.30;74.40;;;;;;4928047;29;20684;-85
2021/06/26 09:50:15;;;;;;;6.88;2.63;;;24.30;75.50;;;;;;4932296;29;20194;-87
2021/06/26 09:52:50;;;;;;;4.22;2.90;;;24.60;75.10;;;;;;4928950;29;20454;-87
2021/06/26 09:55:22;;;;;;;3.10;2.90;;;24.70;75.20;;;;;;4938814;28;20198;-84
2021/06/26 09:57:54;;;;;;;3.50;3.30;;;24.60;75.30;;;;;;4938956;28;20206;-85
2021/06/26 10:00:26;;;;;;;3.65;3.13;;;24.40;75.50;;;;;;4941392;28;20210;-89
2021/06/26 10:03:01;;;;;;;3.58;3.30;;;24.10;76.30;;;;;;4938580;29;20201;-86
2021/06/26 10:05:32;;;;;;;3.58;3.20;;;24.20;76.70;;;;;;4927258;29;20739;-85
2021/06/26 10:08:05;;;;;;;3.83;3.53;;;24.10;76.50;;;;;;4934343;29;20280;-85
2021/06/26 10:10:34;;;;;;;3.88;3.40;;;24.20;76.40;;;;;;4938339;29;20234;-88
2021/06/26 10:13:06;;;;;;;5.07;3.45;;;24.30;76.00;;;;;;4944228;29;20420;-84
2021/06/26 10:15:35;;;;;;;4.28;3.88;;;24.30;76.60;;;;;;4933774;29;20468;-84
2021/06/26 10:18:04;;;;;;;5.28;3.70;;;24.10;76.20;;;;;;4939626;28;20230;-86
2021/06/26 10:20:37;;;;;;;4.35;3.72;;;24.30;77.10;;;;;;4931634;29;20475;-83
2021/06/26 10:23:06;;;;;;;4.15;3.30;;;24.50;77.10;;;;;;4932177;29;20213;-83
2021/06/26 10:25:37;;;;;;;4.43;4.03;;;24.70;77.10;;;;;;4942817;29;20201;-84
2021/06/26 10:28:10;;;;;;;4.75;3.50;;;24.80;77.10;;;;;;4936517;28;20214;-85
2021/06/26 10:30:41;;;;;;;6.38;4.10;;;24.70;77.20;;;;;;4930398;29;20742;-85
2021/06/26 10:33:11;;;;;;;5.07;4.00;;;24.70;77.00;;;;;;4922211;29;20213;-87
2021/06/26 10:35:53;;;;;;;3.60;3.38;;;24.40;76.60;;;;;;4925064;29;20202;-85
2021/06/26 10:38:22;;;;;;;4.15;3.78;;;24.20;76.80;;;;;;4931817;29;20202;-87
2021/06/26 10:40:54;;;;;;;3.95;3.63;;;24.30;77.40;;;;;;4931116;29;20302;-88
2021/06/26 10:43:27;;;;;;;3.92;3.60;;;24.40;77.80;;;;;;4928610;29;20298;-87
2021/06/26 10:46:12;;;;;;;4.63;3.80;;;24.20;77.20;;;;;;4923565;29;20198;-88
2021/06/26 10:48:43;;;;;;;4.20;3.85;;;24.20;77.90;;;;;;4925882;29;20221;-87
2021/06/26 10:51:12;;;;;;;4.32;3.95;;;24.40;77.80;;;;;;4928758;29;20261;-85
2021/06/26 10:53:42;;;;;;;4.30;3.90;;;24.50;77.70;;;;;;4929284;29;20615;-87
2021/06/26 10:56:12;;;;;;;5.05;4.32;;;24.80;77.90;;;;;;4929525;29;20229;-89
2021/06/26 10:58:44;;;;;;;5.43;4.07;;;24.90;78.10;;;;;;4925225;29;20904;-89
2021/06/26 11:01:19;;;;;;;4.68;4.28;;;25.10;78.30;;;;;;4929954;28;20214;-86
2021/06/26 11:04:08;;;;;;;4.82;4.03;;;25.30;78.60;;;;;;4928168;29;20213;-88
2021/06/26 11:06:38;;;;;;;4.43;4.03;;;25.30;77.40;;;;;;4925487;29;20199;-85
2021/06/26 11:09:08;;;;;;;4.45;4.05;;;25.30;78.20;;;;;;4938030;28;20249;-87
2021/06/26 11:11:39;;;;;;;4.85;4.45;;;25.30;77.80;;;;;;4932760;28;20214;-85
2021/06/26 11:14:16;;;;;;;4.82;4.40;;;25.00;77.60;;;;;;4938837;28;20284;-87
2021/06/26 11:16:49;;;;;;;5.40;4.57;;;24.80;78.00;;;;;;4935772;28;20244;-84
2021/06/26 11:19:19;;;;;;;5.28;4.63;;;24.70;78.70;;;;;;4933253;29;20220;-86
2021/06/26 11:21:52;;;;;;;4.57;4.03;;;24.70;78.70;;;;;;4924663;29;20234;-86
2021/06/26 11:24:34;;;;;;;5.18;4.63;;;24.50;78.50;;;;;;4936567;29;20216;-87
2021/06/26 11:27:04;;;;;;;4.53;4.18;;;24.40;79.20;;;;;;4940860;29;20216;-90
2021/06/26 11:29:38;;;;;;;4.78;4.40;;;24.60;78.30;;;;;;4936702;29;20225;-87
2021/06/26 11:32:21;;;;;;;4.70;4.30;;;24.80;78.20;;;;;;4939515;29;20424;-85
2021/06/26 11:34:54;;;;;;;4.97;4.47;;;24.80;78.60;;;;;;4940383;29;20206;-86
2021/06/26 11:37:24;;;;;;;4.85;4.25;;;24.90;78.90;;;;;;4947627;28;20218;-87
2021/06/26 11:39:58;;;;;;;4.60;4.20;;;25.10;78.60;;;;;;4944788;28;20201;-89
2021/06/26 11:42:28;;;;;;;4.70;4.18;;;25.00;78.10;;;;;;4940295;28;20200;-88
2021/06/26 11:44:59;;;;;;;4.97;4.57;;;24.40;78.30;;;;;;4937662;29;20214;-86
2021/06/26 11:47:28;;;;;;;4.65;4.25;;;24.30;79.00;;;;;;4931431;29;20206;-90
2021/06/26 11:49:58;;;;;;;4.88;4.47;;;24.10;78.90;;;;;;4935522;29;20646;-88
2021/06/26 11:52:34;;;;;;;5.63;4.40;;;23.70;79.10;;;;;;4941567;28;20681;-86
2021/06/26 11:55:04;;;;;;;5.40;4.53;;;23.70;79.50;;;;;;4931765;29;20206;-86
2021/06/26 11:57:34;;;;;;;4.88;4.38;;;23.60;79.60;;;;;;4934202;29;20222;-90
2021/06/26 12:00:06;;;;;;;5.22;4.75;;;23.90;80.00;;;;;;4939347;29;20680;-88
2021/06/26 12:02:39;;;;;;;6.88;4.85;;;24.10;79.60;;;;;;4943065;29;20218;-86
2021/06/26 12:05:20;;;;;;;5.70;5.20;;;24.20;79.60;;;;;;4945823;28;20282;-86
2021/06/26 12:07:50;;;;;;;5.70;5.20;;;24.50;79.60;;;;;;4942098;28;20197;-86
2021/06/26 12:10:22;;;;;;;6.18;5.03;;;24.60;79.40;;;;;;4945618;28;20265;-87
2021/06/26 12:12:51;;;;;;;5.72;5.15;;;24.50;79.10;;;;;;4934014;29;20206;-87
2021/06/26 12:15:22;;;;;;;5.50;5.00;;;24.30;79.00;;;;;;4941570;29;20209;-86
2021/06/26 12:18:02;;;;;;;6.65;4.80;;;24.70;79.70;;;;;;4933505;29;20363;-85
2021/06/26 12:20:36;;;;;;;5.53;5.07;;;25.00;78.70;;;;;;4941849;29;20190;-85
2021/06/26 12:23:07;;;;;;;6.00;4.97;;;25.00;78.50;;;;;;4935820;29;20206;-85
2021/06/26 12:25:40;;;;;;;5.40;4.90;;;25.00;78.50;;;;;;4941262;29;20226;-88
2021/06/26 12:28:10;;;;;;;5.45;4.90;;;24.90;79.00;;;;;;4936310;29;20233;-86
2021/06/26 12:30:43;;;;;;;5.47;5.03;;;24.50;78.90;;;;;;4933212;29;20210;-89
2021/06/26 12:33:14;;;;;;;5.85;5.25;;;24.10;79.30;;;;;;4951894;29;20220;-88
2021/06/26 12:35:45;;;;;;;6.78;5.40;;;23.80;80.00;;;;;;4937237;29;20274;-88
2021/06/26 12:38:14;;;;;;;6.13;5.53;;;23.70;80.70;;;;;;4939120;29;20276;-86
2021/06/26 12:40:45;;;;;;;6.78;6.07;;;23.50;81.20;;;;;;4939941;29;20629;-87
2021/06/26 12:43:15;;;;;;;7.57;6.88;;;23.30;82.30;;;;;;4942510;29;20698;-88
2021/06/26 12:45:49;;;;;;;8.95;6.60;;;23.30;83.50;;;;;;4946303;29;20745;-85
2021/06/26 12:48:26;;;;;;;7.45;6.78;;;23.30;84.70;;;;;;4946763;29;20210;-86
2021/06/26 12:51:02;;;;;;;6.78;6.18;;;23.40;86.00;;;;;;4945189;29;20598;-85
2021/06/26 12:53:36;;;;;;;6.22;5.55;;;23.50;85.30;;;;;;4949428;29;20214;-83
2021/06/26 12:56:12;;;;;;;8.00;6.07;;;23.60;84.80;;;;;;4951734;28;20206;-87
2021/06/26 12:58:55;;;;;;;6.47;5.88;;;23.70;84.80;;;;;;4965890;28;20245;-87
2021/06/26 13:01:39;;;;;;;6.95;6.25;;;23.90;84.40;;;;;;4950715;28;20194;-87
2021/06/26 13:04:10;;;;;;;6.85;6.15;;;23.80;84.40;;;;;;4947348;28;20194;-85
2021/06/26 13:06:51;;;;;;;6.60;6.00;;;23.80;83.70;;;;;;4939237;29;20274;-87
2021/06/26 13:09:32;;;;;;;8.10;5.88;;;24.10;84.20;;;;;;4935628;29;20246;-89
2021/06/26 13:12:09;;;;;;;5.63;5.05;;;24.50;82.60;;;;;;4949725;28;20209;-85
2021/06/26 13:14:40;;;;;;;5.88;5.25;;;24.90;82.50;;;;;;4937414;29;20214;-89
2021/06/26 13:17:13;;;;;;;6.70;5.78;;;24.90;82.00;;;;;;4936306;28;20205;-87
2021/06/26 13:19:43;;;;;;;6.55;5.90;;;24.90;82.20;;;;;;4930975;29;20519;-86
2021/06/26 13:22:31;;;;;;;6.22;5.63;;;24.90;82.00;;;;;;4928977;29;20249;-86
2021/06/26 13:25:01;;;;;;;6.65;5.70;;;25.20;81.40;;;;;;4924939;29;20206;-87
2021/06/26 13:27:31;;;;;;;6.20;5.60;;;25.20;81.30;;;;;;4930459;29;20223;-87
2021/06/26 13:30:00;;;;;;;6.55;5.95;;;25.30;81.50;;;;;;4931722;28;20203;-87
2021/06/26 13:32:33;;;;;;;6.57;5.88;;;25.30;81.40;;;;;;4940118;29;20326;-87
2021/06/26 13:35:03;;;;;;;6.43;5.82;;;25.20;81.10;;;;;;4944200;29;21019;-88
2021/06/26 13:37:33;;;;;;;6.25;5.65;;;25.00;81.20;;;;;;4945680;29;20209;-86